Kuurne, Belgium

10:02 CET le 25 février 2017 (GMT +0100)
Anne Frankstraat | | Change Station

Alt. 98 ft 50.82 °N, 3.25 °E | Updated 1 minute ago

Nuageux
Nuageux
40.6 ° F
Paraît 41 ° F
N
0.6
Vent Variable Vent de NE
Gusts 3.7 mph

Aujourd'hui
Haut(e) -- | Bas -- ° F
--% Risque de précip.
Hier
Haut(e) -- | Bas -- ° F
Precip. -- pouce
Pression 30.12 pouce
Visibilité 6.2 Miles terrestres
Nuages Nuageux 21000 ft
Refroidissement éolien 41 ° F
Point de rosée 38 ° F
Humidité 89%
Précipitations 0.00 pouce
Profondeur de la couche neigeuse Non disponible.
7:39 AM 6:21 PM
Lune descendante, 2% visible
METAR EBCV 250855Z AUTO 20013KT 9999 BKN210/// 05/01 Q1020 BLU
Pression 30.12 pouce
Visibilité 6.2 Miles terrestres
Nuages Nuageux 21000 ft
Refroidissement éolien 41 ° F
Point de rosée 38 ° F
Humidité 89%
Précipitations 0.00 pouce
Profondeur de la couche neigeuse Non disponible.
7:39 AM 6:21 PM
Lune descendante, 2% visible
METAR EBCV 250855Z AUTO 20013KT 9999 BKN210/// 05/01 Q1020 BLU

Get Your Daily Forecast Email!

Thanks for signing up!

Be on the lookout for a verification email in your inbox.

You'll start receiving the daily forecast at 8 AM.

×

10-Day Weather Forecast

×

Almanac

Astronomie

Feb. 25, 2017 Lever Coucher
Temps réel
Crépuscule civil
Crépuscule nautique
Crépuscule astronomique
Lune
Durée de lumière visible
Longueur du jour
Tomorrow will be .
, % of the Moon is Illuminated

Extrêmes aujourd'hui

Country Highs Country Lows

Community

WunderPhotos

Upload Photos

1,962,540 Photos téléchargées !

WunderBlog® & News

Nearby

Qualité de l'air

  Qualité de l'air Indice de la qualité de l'air Polluant
Not available.

Épaisseur de neige

Station Depth Altitude

Activité sismique

Ville Distance Mag. Time & Date
Minimum magnitude displayed is 2.5.

Températures des eaux côtières

Lieu Température

Stations

Stations météo à proximité

Emplacement de la station Température Refroidissement éolien Point de rosée Humidité Vent Precip. Alt. Mise à jour Type